Wichita, KS (67226)

7:18 AM CDT on September 30, 2014 (GMT -0500)
Shockerville | Change Station
CLOSE
Current Station
Personal Weather Station
Location: Wichita, KS
Elevation: 1421 ft
Nearby Weather Stations
4.1 Earthquake: Perry, Oklahoma (9 hours ago)  

Elev 1421 ft 37.73 °N, 97.24 °W | Updated 15 seconds ago

Clear
Clear
63.9 °F
Feels Like 63.9 °F
N
0.0
Wind Variable Wind from SSE
Gusts 0.0 mph

Today
High -- | Low -- °F
--% Chance of Precip.
Yesterday
High -- | Low -- °F
Precip. -- in
7:23 AM 7:13 PM
Waxing Crescent, 36% visible
Pressure 29.87 in
Visibility 10.0 miles
Clouds Clear
Dew Point 60 °F
Humidity 87%
Rainfall 0.00 in
Snow Depth Not available.
UV 0 out of 12
Pollen 4.50 out of 12
Air Quality Not available.
Flu Activity Not available.
METAR KAAO 301154Z AUTO 17006KT 10SM CLR 17/14 A2990 RMK AO2 SLP115 T01670139 10183 20161 58003 $

More Conditions Fewer Conditions

Pressure 29.87 in
Visibility 10.0 miles
Clouds Clear
Dew Point 60 °F
Humidity 87%
Rainfall 0.00 in
Snow Depth Not available.
UV 0 out of 12
Pollen 4.50 out of 12
Air Quality Not available.
Flu Activity Not available.
METAR KAAO 301154Z AUTO 17006KT 10SM CLR 17/14 A2990 RMK AO2 SLP115 T01670139 10183 20161 58003 $

More Conditions Fewer Conditions

10-Day Weather Forecast

Almanac

Astronomy

Sep. 30, 2014 Rise Set
Actual Time 7:23 AM CDT 7:13 PM CDT
Civil Twilight 6:57 AM CDT 7:39 PM CDT
Nautical Twilight 6:27 AM CDT 8:10 PM CDT
Astronomical Twilight 5:56 AM CDT 8:40 PM CDT
Moon 1:28 PM CDT 11:49 PM CDT
Length of Visible Light 12h 42m
Length of Day
11h 49m
Tomorrow will be 2m 24s shorter.
Waxing Crescent, 36% of the Moon is Illuminated
Today
Waxing Crescent
Oct 1
First Quarter
Oct 8
Full
Oct 15
Last Quarter
Oct 23
New

Today's Extremes

State Highs State Lows

Community

WunderPhotos

Upload Photos

1,757,621 photos uploaded!

Nearby

Snow Depth

Station Depth Elevation
No new snow has been reported.

Earthquake Activity

City Distance Mag. Time & Date
Perry, Oklahoma 107 miles 3.5 1:06 AM CDT
2014-09-30
Perry, Oklahoma 106 miles 3.3 12:58 AM CDT
2014-09-30
Perry, Oklahoma 106 miles 2.7 10:18 PM CDT
2014-09-29
Perry, Oklahoma 105 miles 4.1 10:01 PM CDT
2014-09-29
Minimum magnitude displayed is 2.5.

Coastal Water Temperatures

Place Temperature
No Stations Reporting

Nearby Weather Stations